sensor_id;sensor_type;location;lat;lon;timestamp;temperature;humidity
14192;DHT22;7177;48.572;7.838;2022-08-14T00:00:38;19.70;83.60
14192;DHT22;7177;48.572;7.838;2022-08-14T00:03:04;19.80;84.70
14192;DHT22;7177;48.572;7.838;2022-08-14T00:05:29;19.90;85.70
14192;DHT22;7177;48.572;7.838;2022-08-14T00:07:55;19.90;85.30
14192;DHT22;7177;48.572;7.838;2022-08-14T00:10:21;19.80;85.60
14192;DHT22;7177;48.572;7.838;2022-08-14T00:12:54;19.80;85.10
14192;DHT22;7177;48.572;7.838;2022-08-14T00:15:35;19.50;85.40
14192;DHT22;7177;48.572;7.838;2022-08-14T00:18:02;19.30;87.20
14192;DHT22;7177;48.572;7.838;2022-08-14T00:20:33;19.30;88.40
14192;DHT22;7177;48.572;7.838;2022-08-14T00:22:59;19.30;90.20
14192;DHT22;7177;48.572;7.838;2022-08-14T00:25:25;19.30;90.40
14192;DHT22;7177;48.572;7.838;2022-08-14T00:27:51;19.40;91.10
14192;DHT22;7177;48.572;7.838;2022-08-14T00:30:17;19.30;91.60
14192;DHT22;7177;48.572;7.838;2022-08-14T00:32:43;19.10;92.70
14192;DHT22;7177;48.572;7.838;2022-08-14T00:35:09;18.90;94.20
14192;DHT22;7177;48.572;7.838;2022-08-14T00:37:38;18.90;94.80
14192;DHT22;7177;48.572;7.838;2022-08-14T00:40:04;18.90;95.30
14192;DHT22;7177;48.572;7.838;2022-08-14T00:42:30;19.00;96.40
14192;DHT22;7177;48.572;7.838;2022-08-14T00:44:56;19.00;96.80
14192;DHT22;7177;48.572;7.838;2022-08-14T00:47:21;19.00;97.10
14192;DHT22;7177;48.572;7.838;2022-08-14T00:49:50;19.00;97.50
14192;DHT22;7177;48.572;7.838;2022-08-14T00:52:16;19.10;98.90
14192;DHT22;7177;48.572;7.838;2022-08-14T00:54:43;19.10;98.50
14192;DHT22;7177;48.572;7.838;2022-08-14T00:57:10;19.00;98.30
14192;DHT22;7177;48.572;7.838;2022-08-14T00:59:36;18.90;98.70
14192;DHT22;7177;48.572;7.838;2022-08-14T01:02:02;18.70;99.90
14192;DHT22;7177;48.572;7.838;2022-08-14T01:04:32;18.60;99.90
14192;DHT22;7177;48.572;7.838;2022-08-14T01:07:00;18.50;99.90
14192;DHT22;7177;48.572;7.838;2022-08-14T01:09:26;18.60;99.90
14192;DHT22;7177;48.572;7.838;2022-08-14T01:11:54;18.60;99.90
14192;DHT22;7177;48.572;7.838;2022-08-14T01:14:22;18.70;99.90
14192;DHT22;7177;48.572;7.838;2022-08-14T01:16:48;18.70;99.90
14192;DHT22;7177;48.572;7.838;2022-08-14T01:19:14;18.60;99.90
14192;DHT22;7177;48.572;7.838;2022-08-14T01:21:58;18.50;99.90
14192;DHT22;7177;48.572;7.838;2022-08-14T01:24:24;18.40;99.90
14192;DHT22;7177;48.572;7.838;2022-08-14T01:26:51;18.30;99.90
14192;DHT22;7177;48.572;7.838;2022-08-14T01:29:18;18.20;99.90
14192;DHT22;7177;48.572;7.838;2022-08-14T01:31:44;18.00;99.90
14192;DHT22;7177;48.572;7.838;2022-08-14T01:34:19;17.80;99.90
14192;DHT22;7177;48.572;7.838;2022-08-14T01:36:48;17.70;99.90
14192;DHT22;7177;48.572;7.838;2022-08-14T01:39:16;17.80;99.90
14192;DHT22;7177;48.572;7.838;2022-08-14T01:41:44;17.70;99.90
14192;DHT22;7177;48.572;7.838;2022-08-14T01:44:17;17.80;99.90
14192;DHT22;7177;48.572;7.838;2022-08-14T01:46:43;17.80;99.90
14192;DHT22;7177;48.572;7.838;2022-08-14T01:49:12;17.70;99.90
14192;DHT22;7177;48.572;7.838;2022-08-14T01:51:40;17.70;99.90
14192;DHT22;7177;48.572;7.838;2022-08-14T01:54:14;17.70;99.90
14192;DHT22;7177;48.572;7.838;2022-08-14T01:56:42;17.80;99.90
14192;DHT22;7177;48.572;7.838;2022-08-14T01:59:17;17.90;99.90
14192;DHT22;7177;48.572;7.838;2022-08-14T02:01:47;17.90;99.90
14192;DHT22;7177;48.572;7.838;2022-08-14T02:04:15;17.70;99.90
14192;DHT22;7177;48.572;7.838;2022-08-14T02:06:41;17.50;99.90
14192;DHT22;7177;48.572;7.838;2022-08-14T02:09:08;17.40;99.90
14192;DHT22;7177;48.572;7.838;2022-08-14T02:11:34;17.40;99.90
14192;DHT22;7177;48.572;7.838;2022-08-14T02:14:04;17.50;99.90
14192;DHT22;7177;48.572;7.838;2022-08-14T02:16:32;17.60;99.90
14192;DHT22;7177;48.572;7.838;2022-08-14T02:19:04;17.60;99.90
14192;DHT22;7177;48.572;7.838;2022-08-14T02:21:31;17.40;99.90
14192;DHT22;7177;48.572;7.838;2022-08-14T02:23:58;17.30;99.90
14192;DHT22;7177;48.572;7.838;2022-08-14T02:26:28;17.40;99.90
14192;DHT22;7177;48.572;7.838;2022-08-14T02:28:57;17.40;99.90
14192;DHT22;7177;48.572;7.838;2022-08-14T02:31:25;17.40;99.90
14192;DHT22;7177;48.572;7.838;2022-08-14T02:33:54;17.20;99.90
14192;DHT22;7177;48.572;7.838;2022-08-14T02:36:19;17.10;99.90
14192;DHT22;7177;48.572;7.838;2022-08-14T02:38:45;16.90;99.90
14192;DHT22;7177;48.572;7.838;2022-08-14T02:41:11;16.90;99.90
14192;DHT22;7177;48.572;7.838;2022-08-14T02:43:37;16.90;99.90
14192;DHT22;7177;48.572;7.838;2022-08-14T02:46:06;17.00;99.90
14192;DHT22;7177;48.572;7.838;2022-08-14T02:48:34;17.10;99.90
14192;DHT22;7177;48.572;7.838;2022-08-14T02:51:01;17.20;99.90
14192;DHT22;7177;48.572;7.838;2022-08-14T02:53:30;17.30;99.90
14192;DHT22;7177;48.572;7.838;2022-08-14T02:55:57;17.30;99.90
14192;DHT22;7177;48.572;7.838;2022-08-14T02:58:24;17.10;99.90
14192;DHT22;7177;48.572;7.838;2022-08-14T03:00:49;16.80;99.90
14192;DHT22;7177;48.572;7.838;2022-08-14T03:03:16;16.60;99.90
14192;DHT22;7177;48.572;7.838;2022-08-14T03:05:42;16.30;99.90
14192;DHT22;7177;48.572;7.838;2022-08-14T03:08:10;16.20;99.90
14192;DHT22;7177;48.572;7.838;2022-08-14T03:10:36;16.10;99.90
14192;DHT22;7177;48.572;7.838;2022-08-14T03:13:02;16.20;99.90
14192;DHT22;7177;48.572;7.838;2022-08-14T03:15:30;16.30;99.90
14192;DHT22;7177;48.572;7.838;2022-08-14T03:17:55;16.40;99.90
14192;DHT22;7177;48.572;7.838;2022-08-14T03:20:21;16.50;99.90
14192;DHT22;7177;48.572;7.838;2022-08-14T03:22:46;16.50;99.90
14192;DHT22;7177;48.572;7.838;2022-08-14T03:25:12;16.40;99.90
14192;DHT22;7177;48.572;7.838;2022-08-14T03:27:38;16.10;99.90
14192;DHT22;7177;48.572;7.838;2022-08-14T03:30:04;16.10;99.90
14192;DHT22;7177;48.572;7.838;2022-08-14T03:32:29;16.20;99.90
14192;DHT22;7177;48.572;7.838;2022-08-14T03:34:58;16.30;99.90
14192;DHT22;7177;48.572;7.838;2022-08-14T03:37:24;16.30;99.90
14192;DHT22;7177;48.572;7.838;2022-08-14T03:39:52;16.30;99.90
14192;DHT22;7177;48.572;7.838;2022-08-14T03:42:18;16.50;99.90
14192;DHT22;7177;48.572;7.838;2022-08-14T03:44:43;16.50;99.90
14192;DHT22;7177;48.572;7.838;2022-08-14T03:47:09;16.40;99.90
14192;DHT22;7177;48.572;7.838;2022-08-14T03:49:36;16.20;99.90
14192;DHT22;7177;48.572;7.838;2022-08-14T03:52:02;15.90;99.90
14192;DHT22;7177;48.572;7.838;2022-08-14T03:54:29;15.70;99.90
14192;DHT22;7177;48.572;7.838;2022-08-14T03:56:55;15.70;99.90
14192;DHT22;7177;48.572;7.838;2022-08-14T03:59:25;15.70;99.90
14192;DHT22;7177;48.572;7.838;2022-08-14T04:01:51;15.70;99.90
14192;DHT22;7177;48.572;7.838;2022-08-14T04:04:17;15.80;99.90
14192;DHT22;7177;48.572;7.838;2022-08-14T04:06:43;16.10;99.90
14192;DHT22;7177;48.572;7.838;2022-08-14T04:09:08;16.30;99.90
14192;DHT22;7177;48.572;7.838;2022-08-14T04:11:35;16.60;99.90
14192;DHT22;7177;48.572;7.838;2022-08-14T04:14:02;16.80;99.90
14192;DHT22;7177;48.572;7.838;2022-08-14T04:16:28;17.10;99.90
14192;DHT22;7177;48.572;7.838;2022-08-14T04:18:56;17.20;99.90
14192;DHT22;7177;48.572;7.838;2022-08-14T04:21:23;17.40;99.90
14192;DHT22;7177;48.572;7.838;2022-08-14T04:23:51;17.20;99.90
14192;DHT22;7177;48.572;7.838;2022-08-14T04:26:17;16.90;99.90
14192;DHT22;7177;48.572;7.838;2022-08-14T04:28:44;16.80;99.90
14192;DHT22;7177;48.572;7.838;2022-08-14T04:31:11;16.90;99.90
14192;DHT22;7177;48.572;7.838;2022-08-14T04:33:36;17.00;99.90
14192;DHT22;7177;48.572;7.838;2022-08-14T04:36:03;17.20;99.90
14192;DHT22;7177;48.572;7.838;2022-08-14T04:38:28;17.40;99.90
14192;DHT22;7177;48.572;7.838;2022-08-14T04:41:13;17.60;99.90
14192;DHT22;7177;48.572;7.838;2022-08-14T04:43:57;17.70;99.90
14192;DHT22;7177;48.572;7.838;2022-08-14T04:46:23;17.80;99.90
14192;DHT22;7177;48.572;7.838;2022-08-14T04:48:50;17.70;99.90
14192;DHT22;7177;48.572;7.838;2022-08-14T04:51:18;17.60;99.90
14192;DHT22;7177;48.572;7.838;2022-08-14T04:53:53;17.60;99.90
14192;DHT22;7177;48.572;7.838;2022-08-14T04:56:21;17.40;99.90
14192;DHT22;7177;48.572;7.838;2022-08-14T04:58:49;17.40;99.90
14192;DHT22;7177;48.572;7.838;2022-08-14T05:01:15;17.40;99.90
14192;DHT22;7177;48.572;7.838;2022-08-14T05:03:42;17.30;99.90
14192;DHT22;7177;48.572;7.838;2022-08-14T05:06:09;17.30;99.90
14192;DHT22;7177;48.572;7.838;2022-08-14T05:08:35;17.40;99.90
14192;DHT22;7177;48.572;7.838;2022-08-14T05:11:03;17.50;99.90
14192;DHT22;7177;48.572;7.838;2022-08-14T05:13:31;17.70;99.90
14192;DHT22;7177;48.572;7.838;2022-08-14T05:15:59;17.80;99.90
14192;DHT22;7177;48.572;7.838;2022-08-14T05:18:27;17.90;99.90
14192;DHT22;7177;48.572;7.838;2022-08-14T05:20:54;18.10;99.90
14192;DHT22;7177;48.572;7.838;2022-08-14T05:23:23;18.20;99.90
14192;DHT22;7177;48.572;7.838;2022-08-14T05:25:51;18.40;99.90
14192;DHT22;7177;48.572;7.838;2022-08-14T05:28:21;18.60;99.90
14192;DHT22;7177;48.572;7.838;2022-08-14T05:30:49;18.70;99.90
14192;DHT22;7177;48.572;7.838;2022-08-14T05:33:16;18.80;99.90
14192;DHT22;7177;48.572;7.838;2022-08-14T05:35:43;19.00;99.90
14192;DHT22;7177;48.572;7.838;2022-08-14T05:38:11;19.10;99.90
14192;DHT22;7177;48.572;7.838;2022-08-14T05:40:40;19.30;99.90
14192;DHT22;7177;48.572;7.838;2022-08-14T05:43:06;19.50;99.90
14192;DHT22;7177;48.572;7.838;2022-08-14T05:45:32;19.70;99.90
14192;DHT22;7177;48.572;7.838;2022-08-14T05:48:00;19.90;99.90
14192;DHT22;7177;48.572;7.838;2022-08-14T05:50:25;20.10;99.90
14192;DHT22;7177;48.572;7.838;2022-08-14T05:52:51;20.10;99.90
14192;DHT22;7177;48.572;7.838;2022-08-14T05:55:17;20.10;99.90
14192;DHT22;7177;48.572;7.838;2022-08-14T06:00:14;19.90;99.90
14192;DHT22;7177;48.572;7.838;2022-08-14T06:02:39;19.80;99.90
14192;DHT22;7177;48.572;7.838;2022-08-14T06:05:05;19.90;99.90
14192;DHT22;7177;48.572;7.838;2022-08-14T06:07:34;20.10;99.90
14192;DHT22;7177;48.572;7.838;2022-08-14T06:10:00;20.10;99.90
14192;DHT22;7177;48.572;7.838;2022-08-14T06:12:26;20.30;99.90
14192;DHT22;7177;48.572;7.838;2022-08-14T06:14:51;20.40;99.90
14192;DHT22;7177;48.572;7.838;2022-08-14T06:17:17;20.30;99.90
14192;DHT22;7177;48.572;7.838;2022-08-14T06:19:42;20.30;99.90
14192;DHT22;7177;48.572;7.838;2022-08-14T06:22:08;20.30;99.90
14192;DHT22;7177;48.572;7.838;2022-08-14T06:24:33;20.50;99.90
14192;DHT22;7177;48.572;7.838;2022-08-14T06:26:59;20.70;99.90
14192;DHT22;7177;48.572;7.838;2022-08-14T06:29:24;20.90;99.90
14192;DHT22;7177;48.572;7.838;2022-08-14T06:31:50;21.20;99.90
14192;DHT22;7177;48.572;7.838;2022-08-14T06:34:16;21.40;99.90
14192;DHT22;7177;48.572;7.838;2022-08-14T06:36:42;21.70;99.90
14192;DHT22;7177;48.572;7.838;2022-08-14T06:39:07;21.90;99.90
14192;DHT22;7177;48.572;7.838;2022-08-14T06:41:33;22.00;99.90
14192;DHT22;7177;48.572;7.838;2022-08-14T06:43:58;22.20;99.90
14192;DHT22;7177;48.572;7.838;2022-08-14T06:46:27;22.20;99.90
14192;DHT22;7177;48.572;7.838;2022-08-14T06:48:53;22.40;99.90
14192;DHT22;7177;48.572;7.838;2022-08-14T06:51:19;22.60;99.90
14192;DHT22;7177;48.572;7.838;2022-08-14T06:53:45;22.70;99.90
14192;DHT22;7177;48.572;7.838;2022-08-14T06:56:12;22.70;99.90
14192;DHT22;7177;48.572;7.838;2022-08-14T06:58:38;22.90;99.90
14192;DHT22;7177;48.572;7.838;2022-08-14T07:01:03;23.00;99.90
14192;DHT22;7177;48.572;7.838;2022-08-14T07:03:47;23.20;99.90
14192;DHT22;7177;48.572;7.838;2022-08-14T07:06:31;23.30;99.90
14192;DHT22;7177;48.572;7.838;2022-08-14T07:08:57;23.60;99.80
14192;DHT22;7177;48.572;7.838;2022-08-14T07:11:22;23.90;98.60
14192;DHT22;7177;48.572;7.838;2022-08-14T07:13:48;24.10;98.20
14192;DHT22;7177;48.572;7.838;2022-08-14T07:16:13;24.50;97.40
14192;DHT22;7177;48.572;7.838;2022-08-14T07:18:40;24.80;96.90
14192;DHT22;7177;48.572;7.838;2022-08-14T07:21:06;25.10;95.90
14192;DHT22;7177;48.572;7.838;2022-08-14T07:23:33;25.50;95.20
14192;DHT22;7177;48.572;7.838;2022-08-14T07:26:00;25.50;94.70
14192;DHT22;7177;48.572;7.838;2022-08-14T07:28:32;25.80;94.20
14192;DHT22;7177;48.572;7.838;2022-08-14T07:31:00;26.20;93.60
14192;DHT22;7177;48.572;7.838;2022-08-14T07:33:29;26.20;92.90
14192;DHT22;7177;48.572;7.838;2022-08-14T07:36:00;26.20;93.10
14192;DHT22;7177;48.572;7.838;2022-08-14T07:38:26;26.50;91.60
14192;DHT22;7177;48.572;7.838;2022-08-14T07:40:52;26.70;91.50
14192;DHT22;7177;48.572;7.838;2022-08-14T07:43:18;26.80;91.70
14192;DHT22;7177;48.572;7.838;2022-08-14T07:45:44;26.90;91.30
14192;DHT22;7177;48.572;7.838;2022-08-14T07:48:09;27.20;91.30
14192;DHT22;7177;48.572;7.838;2022-08-14T07:50:35;27.50;90.50
14192;DHT22;7177;48.572;7.838;2022-08-14T07:53:01;27.80;90.00
14192;DHT22;7177;48.572;7.838;2022-08-14T07:55:27;28.00;88.30
14192;DHT22;7177;48.572;7.838;2022-08-14T07:57:54;28.10;87.60
14192;DHT22;7177;48.572;7.838;2022-08-14T08:00:21;28.30;85.30
14192;DHT22;7177;48.572;7.838;2022-08-14T08:02:50;28.40;85.70
14192;DHT22;7177;48.572;7.838;2022-08-14T08:05:17;28.60;84.00
14192;DHT22;7177;48.572;7.838;2022-08-14T08:07:44;28.80;82.90
14192;DHT22;7177;48.572;7.838;2022-08-14T08:10:16;29.10;82.30
14192;DHT22;7177;48.572;7.838;2022-08-14T08:15:34;29.10;80.80
14192;DHT22;7177;48.572;7.838;2022-08-14T08:18:02;28.90;80.80
14192;DHT22;7177;48.572;7.838;2022-08-14T08:20:30;28.90;79.30
14192;DHT22;7177;48.572;7.838;2022-08-14T08:22:57;29.30;77.80
14192;DHT22;7177;48.572;7.838;2022-08-14T08:25:30;29.60;77.20
14192;DHT22;7177;48.572;7.838;2022-08-14T08:28:12;29.80;77.00
14192;DHT22;7177;48.572;7.838;2022-08-14T08:31:01;30.00;76.70
14192;DHT22;7177;48.572;7.838;2022-08-14T08:33:31;30.00;74.60
14192;DHT22;7177;48.572;7.838;2022-08-14T08:36:03;29.90;74.00
14192;DHT22;7177;48.572;7.838;2022-08-14T08:38:30;30.00;72.20
14192;DHT22;7177;48.572;7.838;2022-08-14T08:40:58;30.10;74.20
14192;DHT22;7177;48.572;7.838;2022-08-14T08:43:42;30.60;72.70
14192;DHT22;7177;48.572;7.838;2022-08-14T08:46:13;30.60;71.10
14192;DHT22;7177;48.572;7.838;2022-08-14T08:48:49;30.80;71.20
14192;DHT22;7177;48.572;7.838;2022-08-14T08:51:25;31.10;69.90
14192;DHT22;7177;48.572;7.838;2022-08-14T08:53:56;31.50;68.30
14192;DHT22;7177;48.572;7.838;2022-08-14T08:56:36;31.50;69.20
14192;DHT22;7177;48.572;7.838;2022-08-14T08:59:02;31.70;69.40
14192;DHT22;7177;48.572;7.838;2022-08-14T09:01:39;31.90;67.80
14192;DHT22;7177;48.572;7.838;2022-08-14T09:04:05;32.00;66.40
14192;DHT22;7177;48.572;7.838;2022-08-14T09:06:30;32.40;66.50
14192;DHT22;7177;48.572;7.838;2022-08-14T09:08:56;32.70;62.50
14192;DHT22;7177;48.572;7.838;2022-08-14T09:11:22;32.90;63.70
14192;DHT22;7177;48.572;7.838;2022-08-14T09:13:52;33.20;60.30
14192;DHT22;7177;48.572;7.838;2022-08-14T09:16:22;33.40;57.60
14192;DHT22;7177;48.572;7.838;2022-08-14T09:18:48;33.50;58.60
14192;DHT22;7177;48.572;7.838;2022-08-14T09:21:14;33.70;59.00
14192;DHT22;7177;48.572;7.838;2022-08-14T09:23:40;34.10;58.20
14192;DHT22;7177;48.572;7.838;2022-08-14T09:26:06;34.30;56.40
14192;DHT22;7177;48.572;7.838;2022-08-14T09:28:31;34.60;54.80
14192;DHT22;7177;48.572;7.838;2022-08-14T09:30:58;34.70;54.60
14192;DHT22;7177;48.572;7.838;2022-08-14T09:47:15;35.30;51.30
14192;DHT22;7177;48.572;7.838;2022-08-14T09:49:41;35.40;51.40
14192;DHT22;7177;48.572;7.838;2022-08-14T09:54:37;35.80;49.50
14192;DHT22;7177;48.572;7.838;2022-08-14T09:57:04;35.80;49.80
14192;DHT22;7177;48.572;7.838;2022-08-14T09:59:41;35.10;48.30
14192;DHT22;7177;48.572;7.838;2022-08-14T10:02:22;35.00;48.40
14192;DHT22;7177;48.572;7.838;2022-08-14T10:07:47;34.80;50.20
14192;DHT22;7177;48.572;7.838;2022-08-14T10:10:38;34.90;49.80
14192;DHT22;7177;48.572;7.838;2022-08-14T10:13:06;34.90;49.40
14192;DHT22;7177;48.572;7.838;2022-08-14T10:15:37;35.20;49.20
14192;DHT22;7177;48.572;7.838;2022-08-14T10:18:15;35.60;49.60
14192;DHT22;7177;48.572;7.838;2022-08-14T10:20:50;36.20;48.80
14192;DHT22;7177;48.572;7.838;2022-08-14T10:23:19;35.90;48.50
14192;DHT22;7177;48.572;7.838;2022-08-14T10:25:47;36.00;48.70
14192;DHT22;7177;48.572;7.838;2022-08-14T10:28:17;36.30;48.60
14192;DHT22;7177;48.572;7.838;2022-08-14T10:30:45;36.70;47.60
14192;DHT22;7177;48.572;7.838;2022-08-14T10:33:29;36.90;45.60
14192;DHT22;7177;48.572;7.838;2022-08-14T10:35:56;36.90;45.80
14192;DHT22;7177;48.572;7.838;2022-08-14T10:38:28;37.00;45.10
14192;DHT22;7177;48.572;7.838;2022-08-14T10:40:54;37.40;45.00
14192;DHT22;7177;48.572;7.838;2022-08-14T10:43:22;37.70;43.60
14192;DHT22;7177;48.572;7.838;2022-08-14T10:45:56;37.60;42.80
14192;DHT22;7177;48.572;7.838;2022-08-14T10:48:23;37.80;43.30
14192;DHT22;7177;48.572;7.838;2022-08-14T10:50:48;38.00;42.10
14192;DHT22;7177;48.572;7.838;2022-08-14T10:53:30;37.90;42.40
14192;DHT22;7177;48.572;7.838;2022-08-14T10:55:58;38.30;40.30
14192;DHT22;7177;48.572;7.838;2022-08-14T10:58:28;37.90;39.10
14192;DHT22;7177;48.572;7.838;2022-08-14T11:00:57;37.70;37.60
14192;DHT22;7177;48.572;7.838;2022-08-14T11:03:23;37.90;34.30
14192;DHT22;7177;48.572;7.838;2022-08-14T11:05:50;38.10;34.90
14192;DHT22;7177;48.572;7.838;2022-08-14T11:08:29;38.00;34.30
14192;DHT22;7177;48.572;7.838;2022-08-14T11:10:57;37.60;35.40
14192;DHT22;7177;48.572;7.838;2022-08-14T11:13:27;37.30;35.20
14192;DHT22;7177;48.572;7.838;2022-08-14T11:15:57;37.10;36.20
14192;DHT22;7177;48.572;7.838;2022-08-14T11:18:27;36.90;37.00
14192;DHT22;7177;48.572;7.838;2022-08-14T11:20:58;36.70;37.60
14192;DHT22;7177;48.572;7.838;2022-08-14T11:23:31;36.20;38.00
14192;DHT22;7177;48.572;7.838;2022-08-14T11:25:58;36.50;37.00
14192;DHT22;7177;48.572;7.838;2022-08-14T11:28:32;36.50;37.10
14192;DHT22;7177;48.572;7.838;2022-08-14T11:30:58;36.60;37.60
14192;DHT22;7177;48.572;7.838;2022-08-14T11:33:26;36.70;36.60
14192;DHT22;7177;48.572;7.838;2022-08-14T11:36:02;36.40;36.70
14192;DHT22;7177;48.572;7.838;2022-08-14T11:38:40;35.90;37.10
14192;DHT22;7177;48.572;7.838;2022-08-14T11:41:07;36.30;36.90
14192;DHT22;7177;48.572;7.838;2022-08-14T11:43:44;36.60;36.80
14192;DHT22;7177;48.572;7.838;2022-08-14T11:46:10;37.20;37.00
14192;DHT22;7177;48.572;7.838;2022-08-14T11:51:15;37.20;35.60
14192;DHT22;7177;48.572;7.838;2022-08-14T11:53:50;37.20;35.30
14192;DHT22;7177;48.572;7.838;2022-08-14T11:56:16;37.50;35.30
14192;DHT22;7177;48.572;7.838;2022-08-14T11:58:41;37.70;35.50
14192;DHT22;7177;48.572;7.838;2022-08-14T12:01:08;37.50;35.30
14192;DHT22;7177;48.572;7.838;2022-08-14T12:08:35;36.80;36.30
14192;DHT22;7177;48.572;7.838;2022-08-14T12:11:02;36.60;37.40
14192;DHT22;7177;48.572;7.838;2022-08-14T12:13:29;36.30;38.40
14192;DHT22;7177;48.572;7.838;2022-08-14T12:16:05;36.40;38.80
14192;DHT22;7177;48.572;7.838;2022-08-14T12:18:43;36.60;38.50
14192;DHT22;7177;48.572;7.838;2022-08-14T12:21:20;36.70;36.90
14192;DHT22;7177;48.572;7.838;2022-08-14T12:24:03;36.40;38.10
14192;DHT22;7177;48.572;7.838;2022-08-14T12:26:30;36.10;37.40
14192;DHT22;7177;48.572;7.838;2022-08-14T12:29:11;36.20;37.00
14192;DHT22;7177;48.572;7.838;2022-08-14T12:31:39;36.30;37.30
14192;DHT22;7177;48.572;7.838;2022-08-14T12:34:10;36.40;35.80
14192;DHT22;7177;48.572;7.838;2022-08-14T12:36:36;36.90;33.50
14192;DHT22;7177;48.572;7.838;2022-08-14T12:39:21;36.60;32.60
14192;DHT22;7177;48.572;7.838;2022-08-14T12:41:51;36.60;33.10
14192;DHT22;7177;48.572;7.838;2022-08-14T12:44:29;35.90;35.00
14192;DHT22;7177;48.572;7.838;2022-08-14T12:47:09;35.60;36.20
14192;DHT22;7177;48.572;7.838;2022-08-14T12:49:37;35.10;36.90
14192;DHT22;7177;48.572;7.838;2022-08-14T12:52:04;34.80;35.80
14192;DHT22;7177;48.572;7.838;2022-08-14T12:54:32;34.90;35.60
14192;DHT22;7177;48.572;7.838;2022-08-14T12:57:06;34.90;34.80
14192;DHT22;7177;48.572;7.838;2022-08-14T12:59:32;34.60;33.90
14192;DHT22;7177;48.572;7.838;2022-08-14T13:01:59;34.70;34.50
14192;DHT22;7177;48.572;7.838;2022-08-14T13:04:26;34.60;35.40
14192;DHT22;7177;48.572;7.838;2022-08-14T13:07:00;34.60;35.30
14192;DHT22;7177;48.572;7.838;2022-08-14T13:09:28;34.90;35.70
14192;DHT22;7177;48.572;7.838;2022-08-14T13:11:55;34.60;35.40
14192;DHT22;7177;48.572;7.838;2022-08-14T13:14:23;34.80;35.60
14192;DHT22;7177;48.572;7.838;2022-08-14T13:16:53;34.50;36.30
14192;DHT22;7177;48.572;7.838;2022-08-14T13:19:20;34.80;37.30
14192;DHT22;7177;48.572;7.838;2022-08-14T13:21:47;34.90;37.00
14192;DHT22;7177;48.572;7.838;2022-08-14T13:24:13;34.50;37.70
14192;DHT22;7177;48.572;7.838;2022-08-14T13:26:44;33.90;37.50
14192;DHT22;7177;48.572;7.838;2022-08-14T13:29:10;33.50;37.30
14192;DHT22;7177;48.572;7.838;2022-08-14T13:31:37;33.00;38.20
14192;DHT22;7177;48.572;7.838;2022-08-14T13:34:05;32.60;39.50
14192;DHT22;7177;48.572;7.838;2022-08-14T13:36:31;32.40;40.90
14192;DHT22;7177;48.572;7.838;2022-08-14T13:38:58;32.40;41.90
14192;DHT22;7177;48.572;7.838;2022-08-14T13:41:26;32.50;41.90
14192;DHT22;7177;48.572;7.838;2022-08-14T13:43:52;32.50;42.20
14192;DHT22;7177;48.572;7.838;2022-08-14T13:46:20;32.50;42.60
14192;DHT22;7177;48.572;7.838;2022-08-14T13:48:47;32.60;43.10
14192;DHT22;7177;48.572;7.838;2022-08-14T13:51:15;32.50;43.70
14192;DHT22;7177;48.572;7.838;2022-08-14T13:53:45;32.30;44.50
14192;DHT22;7177;48.572;7.838;2022-08-14T13:56:12;32.30;43.80
14192;DHT22;7177;48.572;7.838;2022-08-14T13:58:40;32.40;43.60
14192;DHT22;7177;48.572;7.838;2022-08-14T14:01:11;32.50;44.00
14192;DHT22;7177;48.572;7.838;2022-08-14T14:03:43;32.70;43.30
14192;DHT22;7177;48.572;7.838;2022-08-14T14:06:12;32.60;42.40
14192;DHT22;7177;48.572;7.838;2022-08-14T14:08:44;32.50;42.00
14192;DHT22;7177;48.572;7.838;2022-08-14T14:11:11;32.60;42.20
14192;DHT22;7177;48.572;7.838;2022-08-14T14:13:37;32.60;43.70
14192;DHT22;7177;48.572;7.838;2022-08-14T14:16:08;32.50;44.20
14192;DHT22;7177;48.572;7.838;2022-08-14T14:18:34;32.60;45.20
14192;DHT22;7177;48.572;7.838;2022-08-14T14:21:01;32.80;45.50
14192;DHT22;7177;48.572;7.838;2022-08-14T14:23:27;32.70;45.50
14192;DHT22;7177;48.572;7.838;2022-08-14T14:28:19;32.60;45.10
14192;DHT22;7177;48.572;7.838;2022-08-14T14:30:46;32.60;45.00
14192;DHT22;7177;48.572;7.838;2022-08-14T14:33:13;32.80;45.30
14192;DHT22;7177;48.572;7.838;2022-08-14T14:35:44;33.00;45.50
14192;DHT22;7177;48.572;7.838;2022-08-14T14:38:15;33.30;45.50
14192;DHT22;7177;48.572;7.838;2022-08-14T14:40:43;33.50;46.00
14192;DHT22;7177;48.572;7.838;2022-08-14T14:43:11;33.60;46.00
14192;DHT22;7177;48.572;7.838;2022-08-14T14:45:38;33.60;46.00
14192;DHT22;7177;48.572;7.838;2022-08-14T14:48:07;33.30;46.00
14192;DHT22;7177;48.572;7.838;2022-08-14T14:50:34;33.10;46.70
14192;DHT22;7177;48.572;7.838;2022-08-14T14:53:03;32.80;47.80
14192;DHT22;7177;48.572;7.838;2022-08-14T14:55:29;32.60;48.90
14192;DHT22;7177;48.572;7.838;2022-08-14T14:57:57;32.20;51.30
14192;DHT22;7177;48.572;7.838;2022-08-14T15:00:23;32.20;53.40
14192;DHT22;7177;48.572;7.838;2022-08-14T15:02:51;32.30;54.00
14192;DHT22;7177;48.572;7.838;2022-08-14T15:05:19;32.70;53.70
14192;DHT22;7177;48.572;7.838;2022-08-14T15:07:49;32.90;53.10
14192;DHT22;7177;48.572;7.838;2022-08-14T15:10:18;33.10;52.80
14192;DHT22;7177;48.572;7.838;2022-08-14T15:12:44;32.90;53.10
14192;DHT22;7177;48.572;7.838;2022-08-14T15:15:11;32.60;52.90
14192;DHT22;7177;48.572;7.838;2022-08-14T15:17:38;32.40;53.20
14192;DHT22;7177;48.572;7.838;2022-08-14T15:20:10;32.00;53.10
14192;DHT22;7177;48.572;7.838;2022-08-14T15:22:36;31.40;53.00
14192;DHT22;7177;48.572;7.838;2022-08-14T15:25:03;31.10;53.10
14192;DHT22;7177;48.572;7.838;2022-08-14T15:27:29;30.90;52.70
14192;DHT22;7177;48.572;7.838;2022-08-14T15:29:56;30.50;52.50
14192;DHT22;7177;48.572;7.838;2022-08-14T15:32:22;30.20;52.90
14192;DHT22;7177;48.572;7.838;2022-08-14T15:34:47;29.70;53.70
14192;DHT22;7177;48.572;7.838;2022-08-14T15:37:13;29.60;54.30
14192;DHT22;7177;48.572;7.838;2022-08-14T15:39:39;29.60;54.90
14192;DHT22;7177;48.572;7.838;2022-08-14T15:42:05;29.80;55.30
14192;DHT22;7177;48.572;7.838;2022-08-14T15:44:31;29.90;55.20
14192;DHT22;7177;48.572;7.838;2022-08-14T15:46:58;30.10;54.50
14192;DHT22;7177;48.572;7.838;2022-08-14T15:49:25;30.00;55.00
14192;DHT22;7177;48.572;7.838;2022-08-14T15:51:53;30.10;54.90
14192;DHT22;7177;48.572;7.838;2022-08-14T15:54:22;29.90;55.40
14192;DHT22;7177;48.572;7.838;2022-08-14T15:56:59;29.80;55.80
14192;DHT22;7177;48.572;7.838;2022-08-14T15:59:26;29.70;56.50
14192;DHT22;7177;48.572;7.838;2022-08-14T16:01:51;29.60;57.20
14192;DHT22;7177;48.572;7.838;2022-08-14T16:04:18;29.50;57.00
14192;DHT22;7177;48.572;7.838;2022-08-14T16:06:47;29.50;57.50
14192;DHT22;7177;48.572;7.838;2022-08-14T16:09:13;29.40;58.10
14192;DHT22;7177;48.572;7.838;2022-08-14T16:11:38;29.20;58.10
14192;DHT22;7177;48.572;7.838;2022-08-14T16:14:04;29.20;58.70
14192;DHT22;7177;48.572;7.838;2022-08-14T16:16:30;29.20;59.00
14192;DHT22;7177;48.572;7.838;2022-08-14T16:18:56;29.20;59.30
14192;DHT22;7177;48.572;7.838;2022-08-14T16:21:24;29.00;59.60
14192;DHT22;7177;48.572;7.838;2022-08-14T16:23:50;28.90;60.10
14192;DHT22;7177;48.572;7.838;2022-08-14T16:26:19;28.90;60.40